createdAt,value
2018-02-02T00:00:44.298Z,89.59
2018-02-02T00:03:11.919Z,89.56
2018-02-02T00:05:40.422Z,89.66
2018-02-02T00:08:08.084Z,89.58
2018-02-02T00:10:35.704Z,89.30
2018-02-02T00:13:03.327Z,89.02
2018-02-02T00:15:30.931Z,89.18
2018-02-02T00:17:58.623Z,89.16
2018-02-02T00:20:26.254Z,89.04
2018-02-02T00:22:53.930Z,88.91
2018-02-02T00:25:22.351Z,89.00
2018-02-02T00:27:50.018Z,89.01
2018-02-02T00:30:17.614Z,89.16
2018-02-02T00:32:45.247Z,88.90
2018-02-02T00:35:12.857Z,89.02
2018-02-02T00:37:40.540Z,88.76
2018-02-02T00:40:08.208Z,88.77
2018-02-02T00:42:35.835Z,88.86
2018-02-02T00:45:03.450Z,88.78
2018-02-02T00:47:31.095Z,88.69
2018-02-02T00:49:58.690Z,88.67
2018-02-02T00:52:26.422Z,88.37
2018-02-02T00:54:54.014Z,88.52
2018-02-02T00:57:21.654Z,88.61
2018-02-02T00:59:49.305Z,88.54
2018-02-02T01:02:16.945Z,88.51
2018-02-02T01:04:44.558Z,88.54
2018-02-02T01:07:12.158Z,88.42
2018-02-02T01:09:39.745Z,88.49
2018-02-02T01:12:07.384Z,88.47
2018-02-02T01:14:34.992Z,88.45
2018-02-02T01:17:02.620Z,88.50
2018-02-02T01:19:30.348Z,88.47
2018-02-02T01:21:58.758Z,88.55
2018-02-02T01:24:26.370Z,88.51
2018-02-02T01:26:54.011Z,88.72
2018-02-02T01:29:21.689Z,88.43
2018-02-02T01:31:49.322Z,88.38
2018-02-02T01:34:16.943Z,88.51
2018-02-02T01:36:45.387Z,88.34
2018-02-02T01:39:13.075Z,88.51
2018-02-02T01:41:40.710Z,88.51
2018-02-02T01:44:08.337Z,88.69
2018-02-02T01:46:36.062Z,88.08
2018-02-02T01:49:03.659Z,88.17
2018-02-02T01:51:31.283Z,88.44
2018-02-02T01:53:58.918Z,88.66
2018-02-02T01:56:26.551Z,88.89
2018-02-02T01:58:54.207Z,89.01
2018-02-02T02:01:21.858Z,88.95
2018-02-02T02:03:49.463Z,89.01
2018-02-02T02:06:17.081Z,89.07
2018-02-02T02:08:44.730Z,88.93
2018-02-02T02:11:12.942Z,89.10
2018-02-02T02:13:40.848Z,89.48
2018-02-02T02:16:08.832Z,89.48
2018-02-02T02:18:36.816Z,89.32
2018-02-02T02:21:04.721Z,89.36
2018-02-02T02:23:32.908Z,89.48
2018-02-02T02:26:00.746Z,89.42
2018-02-02T02:28:28.437Z,89.49
2018-02-02T02:30:56.087Z,89.76
2018-02-02T02:33:23.715Z,89.59
2018-02-02T02:35:51.354Z,89.61
2018-02-02T02:38:18.965Z,89.81
2018-02-02T02:40:46.575Z,89.87
2018-02-02T02:43:14.242Z,90.20
2018-02-02T02:45:41.837Z,89.98
2018-02-02T02:48:09.462Z,90.20
2018-02-02T02:50:37.072Z,90.30
2018-02-02T02:53:04.715Z,90.28
2018-02-02T02:55:32.357Z,90.39
2018-02-02T02:57:59.967Z,90.46
2018-02-02T03:00:27.623Z,90.69
2018-02-02T03:02:55.246Z,91.05
2018-02-02T03:05:22.892Z,91.67
2018-02-02T03:07:50.554Z,92.63
2018-02-02T03:10:18.170Z,93.02
2018-02-02T03:12:45.782Z,93.11
2018-02-02T03:15:13.420Z,93.39
2018-02-02T03:17:41.055Z,93.65
2018-02-02T03:20:08.647Z,94.23
2018-02-02T03:22:36.334Z,95.68
2018-02-02T03:25:03.932Z,95.74
2018-02-02T03:27:31.550Z,96.34
2018-02-02T03:29:59.154Z,96.88
2018-02-02T03:32:26.813Z,97.75
2018-02-02T03:34:54.482Z,98.90
2018-02-02T03:37:22.111Z,99.22
2018-02-02T03:39:49.706Z,99.72
2018-02-02T03:42:17.356Z,99.77
2018-02-02T03:44:44.948Z,99.67
2018-02-02T03:47:12.602Z,100.00
2018-02-02T03:49:40.205Z,100.00
2018-02-02T03:52:07.872Z,100.00
2018-02-02T03:54:35.488Z,100.00
2018-02-02T03:57:03.112Z,100.00
2018-02-02T03:59:30.713Z,100.00
2018-02-02T04:01:58.347Z,100.00
2018-02-02T04:04:25.976Z,100.00
2018-02-02T04:06:53.738Z,100.00
2018-02-02T04:09:21.374Z,100.00
2018-02-02T04:11:49.002Z,100.00
2018-02-02T04:14:16.715Z,100.00
2018-02-02T04:16:44.620Z,100.00
2018-02-02T04:19:12.234Z,100.00
2018-02-02T04:21:39.878Z,100.00
2018-02-02T04:24:07.515Z,100.00
2018-02-02T04:26:35.217Z,100.00
2018-02-02T04:29:02.839Z,100.00
2018-02-02T04:31:30.704Z,100.00
2018-02-02T04:33:58.299Z,100.00
2018-02-02T04:36:25.922Z,100.00
2018-02-02T04:38:53.534Z,100.00
2018-02-02T04:41:21.296Z,100.00
2018-02-02T04:43:48.902Z,100.00
2018-02-02T04:46:16.531Z,100.00
2018-02-02T04:48:44.126Z,100.00
2018-02-02T04:51:11.759Z,100.00
2018-02-02T04:53:39.393Z,100.00
2018-02-02T04:56:07.022Z,100.00
2018-02-02T04:58:34.624Z,100.00
2018-02-02T05:01:02.277Z,100.00
2018-02-02T05:03:29.980Z,100.00
2018-02-02T05:05:57.614Z,100.00
2018-02-02T05:08:25.227Z,100.00
2018-02-02T05:10:52.966Z,100.00
2018-02-02T05:13:20.576Z,100.00
2018-02-02T05:15:48.333Z,100.00
2018-02-02T05:18:15.954Z,100.00
2018-02-02T05:20:43.602Z,100.00
2018-02-02T05:23:11.208Z,100.00
2018-02-02T05:25:38.882Z,100.00
2018-02-02T05:28:06.645Z,100.00
2018-02-02T05:30:34.279Z,100.00
2018-02-02T05:33:01.883Z,100.00
2018-02-02T05:35:29.502Z,100.00
2018-02-02T05:37:57.106Z,100.00
2018-02-02T05:40:25.521Z,100.00
2018-02-02T05:42:53.110Z,100.00
2018-02-02T05:45:22.530Z,100.00
2018-02-02T05:47:50.142Z,100.00
2018-02-02T05:50:17.792Z,99.87
2018-02-02T05:52:45.456Z,99.75
2018-02-02T05:55:13.094Z,99.60
2018-02-02T05:57:40.697Z,99.52
2018-02-02T06:00:08.355Z,99.15
2018-02-02T06:02:36.918Z,99.19
2018-02-02T06:05:04.625Z,98.98
2018-02-02T06:07:32.734Z,99.19
2018-02-02T06:10:00.403Z,99.12
2018-02-02T06:12:28.018Z,98.98
2018-02-02T06:14:55.728Z,99.00
2018-02-02T06:17:24.196Z,99.14
2018-02-02T06:19:51.827Z,98.63
2018-02-02T06:22:19.450Z,98.45
2018-02-02T06:24:47.094Z,98.48
2018-02-02T06:27:14.698Z,98.36
2018-02-02T06:29:42.316Z,98.21
2018-02-02T06:32:09.949Z,97.96
2018-02-02T06:34:37.573Z,97.87
2018-02-02T06:37:05.176Z,97.98
2018-02-02T06:39:33.142Z,98.06
2018-02-02T06:42:00.755Z,97.81
2018-02-02T06:44:28.396Z,97.89
2018-02-02T06:46:56.022Z,97.79
2018-02-02T06:49:23.638Z,97.61
2018-02-02T06:51:51.345Z,97.51
2018-02-02T06:54:18.998Z,97.65
2018-02-02T06:56:46.680Z,97.53
2018-02-02T06:59:14.317Z,97.74
2018-02-02T07:01:41.964Z,97.66
2018-02-02T07:04:09.654Z,97.38
2018-02-02T07:06:37.398Z,97.18
2018-02-02T07:09:05.102Z,97.30
2018-02-02T07:11:32.707Z,97.16
2018-02-02T07:14:00.348Z,97.14
2018-02-02T07:16:28.079Z,96.91
2018-02-02T07:18:55.860Z,96.65
2018-02-02T07:21:23.521Z,96.52
2018-02-02T07:23:51.189Z,96.69
2018-02-02T07:26:18.833Z,96.51
2018-02-02T07:28:46.462Z,96.72
2018-02-02T07:31:14.093Z,96.74
2018-02-02T07:33:41.822Z,96.68
2018-02-02T07:36:09.463Z,96.93
2018-02-02T07:38:37.900Z,96.39
2018-02-02T07:41:05.490Z,96.19
2018-02-02T07:43:33.127Z,96.15
2018-02-02T07:46:00.747Z,95.76
2018-02-02T07:48:28.416Z,95.93
2018-02-02T07:50:56.029Z,96.06
2018-02-02T07:53:23.678Z,96.34
2018-02-02T07:55:51.316Z,96.44
2018-02-02T07:58:18.954Z,97.06
2018-02-02T08:00:52.239Z,97.66
2018-02-02T08:03:19.902Z,97.47
2018-02-02T08:05:47.500Z,97.55
2018-02-02T08:08:15.220Z,97.47
2018-02-02T08:10:42.816Z,97.57
2018-02-02T08:13:10.452Z,97.81
2018-02-02T08:15:38.119Z,98.10
2018-02-02T08:18:05.774Z,98.53
2018-02-02T08:20:33.352Z,98.60
2018-02-02T08:23:01.002Z,98.78
2018-02-02T08:25:28.610Z,98.55
2018-02-02T08:27:56.239Z,98.57
2018-02-02T08:30:23.832Z,98.71
2018-02-02T08:32:52.254Z,98.22
2018-02-02T08:35:19.859Z,98.49
2018-02-02T08:37:47.496Z,99.03
2018-02-02T08:40:15.132Z,99.11
2018-02-02T08:42:42.789Z,99.09
2018-02-02T08:45:10.430Z,99.34
2018-02-02T08:47:38.043Z,99.22
2018-02-02T08:50:05.659Z,98.89
2018-02-02T08:52:33.310Z,98.83
2018-02-02T08:55:00.939Z,98.96
2018-02-02T08:57:28.651Z,98.63
2018-02-02T08:59:56.238Z,98.16
2018-02-02T09:02:23.849Z,97.84
2018-02-02T09:04:51.498Z,97.18
2018-02-02T09:07:19.130Z,97.45
2018-02-02T09:09:46.717Z,97.69
2018-02-02T09:12:14.395Z,97.29
2018-02-02T09:14:42.009Z,98.05
2018-02-02T09:17:09.715Z,97.88
2018-02-02T09:19:37.339Z,98.62
2018-02-02T09:22:04.378Z,98.72
2018-02-02T09:24:31.989Z,98.41
2018-02-02T09:26:59.032Z,98.68
2018-02-02T09:29:26.637Z,99.46
2018-02-02T09:31:54.330Z,99.23
2018-02-02T09:34:21.929Z,99.23
2018-02-02T09:36:49.578Z,99.12
2018-02-02T09:39:17.181Z,99.33
2018-02-02T09:41:44.834Z,99.64
2018-02-02T09:44:12.430Z,99.79
2018-02-02T09:46:40.056Z,100.00
2018-02-02T09:49:07.663Z,99.95
2018-02-02T09:51:35.311Z,99.96
2018-02-02T09:54:02.906Z,100.00
2018-02-02T09:56:30.577Z,100.00
2018-02-02T09:58:58.206Z,100.00
2018-02-02T10:01:25.891Z,100.00
2018-02-02T10:03:53.508Z,100.00
2018-02-02T10:06:21.122Z,100.00
2018-02-02T10:08:48.731Z,100.00
2018-02-02T10:11:16.432Z,100.00
2018-02-02T10:13:44.028Z,100.00
2018-02-02T10:16:11.654Z,100.00
2018-02-02T10:18:39.242Z,99.91
2018-02-02T10:21:06.888Z,100.00
2018-02-02T10:23:34.487Z,100.00
2018-02-02T10:26:02.188Z,100.00
2018-02-02T10:28:29.796Z,100.00
2018-02-02T10:30:57.473Z,100.00
2018-02-02T10:33:25.094Z,100.00
2018-02-02T10:35:52.758Z,100.00
2018-02-02T10:38:20.445Z,100.00
2018-02-02T10:40:48.110Z,100.00
2018-02-02T10:43:15.711Z,100.00
2018-02-02T10:45:43.333Z,100.00
2018-02-02T10:48:10.978Z,100.00
2018-02-02T10:50:38.732Z,100.00
2018-02-02T10:53:06.399Z,100.00
2018-02-02T10:55:34.079Z,100.00
2018-02-02T10:58:01.697Z,100.00
2018-02-02T11:00:34.946Z,100.00
2018-02-02T11:03:07.928Z,100.00
2018-02-02T11:05:35.609Z,100.00
2018-02-02T11:08:03.279Z,100.00
2018-02-02T11:10:30.918Z,100.00
2018-02-02T11:12:58.559Z,100.00
2018-02-02T11:15:26.191Z,100.00
2018-02-02T11:17:53.790Z,100.00
2018-02-02T11:20:21.802Z,100.00
2018-02-02T11:22:49.435Z,100.00
2018-02-02T11:25:17.084Z,100.00
2018-02-02T11:27:44.683Z,100.00
2018-02-02T11:30:12.339Z,100.00
2018-02-02T11:32:40.007Z,100.00
2018-02-02T11:35:07.668Z,100.00
2018-02-02T11:37:35.272Z,100.00
2018-02-02T11:40:02.905Z,100.00
2018-02-02T11:42:30.544Z,100.00
2018-02-02T11:44:58.187Z,100.00
2018-02-02T11:47:25.822Z,100.00
2018-02-02T11:49:53.490Z,100.00
2018-02-02T11:52:21.113Z,100.00
2018-02-02T11:54:48.735Z,100.00
2018-02-02T11:57:16.469Z,99.91
2018-02-02T11:59:44.117Z,99.79
2018-02-02T12:02:11.712Z,99.70
2018-02-02T12:04:39.409Z,99.30
2018-02-02T12:07:07.048Z,97.86
2018-02-02T12:09:34.820Z,96.29
2018-02-02T12:12:02.464Z,95.91
2018-02-02T12:14:30.281Z,96.02
2018-02-02T12:16:57.891Z,96.07
2018-02-02T12:19:25.545Z,95.98
2018-02-02T12:21:53.175Z,95.37
2018-02-02T12:24:23.140Z,93.80
2018-02-02T12:27:02.413Z,93.51
2018-02-02T12:32:49.827Z,92.37
2018-02-02T12:35:21.354Z,91.65
2018-02-02T12:37:48.966Z,91.90
2018-02-02T12:40:16.623Z,92.09
2018-02-02T12:42:44.290Z,92.38
2018-02-02T12:45:11.915Z,92.29
2018-02-02T12:47:39.555Z,92.98
2018-02-02T12:50:07.175Z,92.97
2018-02-02T12:52:34.767Z,93.85
2018-02-02T12:55:02.406Z,93.92
2018-02-02T12:57:30.031Z,93.99
2018-02-02T12:59:57.667Z,94.42
2018-02-02T13:02:25.286Z,94.46
2018-02-02T13:04:52.915Z,94.69
2018-02-02T13:07:20.563Z,94.72
2018-02-02T13:09:48.304Z,94.75
2018-02-02T13:12:15.933Z,94.97
2018-02-02T13:14:43.571Z,95.33
2018-02-02T13:17:11.182Z,95.43
2018-02-02T13:19:38.802Z,95.33
2018-02-02T13:22:06.412Z,95.68
2018-02-02T13:24:34.102Z,96.08
2018-02-02T13:27:01.771Z,96.38
2018-02-02T13:29:29.399Z,96.53
2018-02-02T13:31:57.011Z,96.45
2018-02-02T13:34:24.631Z,96.29
2018-02-02T13:36:52.247Z,95.55
2018-02-02T13:39:19.894Z,95.51
2018-02-02T13:41:47.499Z,95.23
2018-02-02T13:44:15.167Z,94.66
2018-02-02T13:46:43.486Z,94.12
2018-02-02T13:49:11.128Z,93.58
2018-02-02T13:51:38.774Z,92.73
2018-02-02T13:54:06.398Z,91.32
2018-02-02T13:56:34.005Z,90.76
2018-02-02T13:59:01.640Z,89.62
2018-02-02T14:01:29.247Z,89.44
2018-02-02T14:03:56.890Z,89.66
2018-02-02T14:06:24.494Z,90.13
2018-02-02T14:08:52.137Z,91.09
2018-02-02T14:11:19.751Z,90.65
2018-02-02T14:13:47.378Z,88.64
2018-02-02T14:16:14.978Z,87.29
2018-02-02T14:18:42.600Z,88.54
2018-02-02T14:21:10.339Z,89.08
2018-02-02T14:23:37.997Z,89.03
2018-02-02T14:26:05.615Z,88.70
2018-02-02T14:28:33.277Z,88.74
2018-02-02T14:31:00.947Z,90.28
2018-02-02T14:33:28.560Z,90.92
2018-02-02T14:35:56.188Z,91.32
2018-02-02T14:38:23.787Z,91.29
2018-02-02T14:40:52.335Z,91.00
2018-02-02T14:43:19.954Z,91.47
2018-02-02T14:45:47.656Z,91.10
2018-02-02T14:48:15.328Z,92.17
2018-02-02T14:50:42.965Z,92.13
2018-02-02T14:53:10.606Z,92.69
2018-02-02T14:55:38.273Z,93.35
2018-02-02T14:58:05.936Z,94.48
2018-02-02T15:00:33.578Z,95.28
2018-02-02T15:03:01.168Z,95.91
2018-02-02T15:05:28.817Z,96.09
2018-02-02T15:07:56.426Z,96.42
2018-02-02T15:10:24.106Z,96.29
2018-02-02T15:12:51.736Z,96.18
2018-02-02T15:15:19.419Z,96.89
2018-02-02T15:17:47.052Z,97.27
2018-02-02T15:20:14.734Z,97.69
2018-02-02T15:22:43.743Z,97.82
2018-02-02T15:25:11.438Z,98.08
2018-02-02T15:27:39.092Z,98.25
2018-02-02T15:30:06.750Z,98.59
2018-02-02T15:32:34.351Z,98.60
2018-02-02T15:35:02.037Z,98.35
2018-02-02T15:37:29.649Z,98.43
2018-02-02T15:39:57.278Z,98.82
2018-02-02T15:42:24.910Z,98.98
2018-02-02T15:44:52.682Z,99.01
2018-02-02T15:47:20.282Z,98.82
2018-02-02T15:49:47.899Z,98.99
2018-02-02T15:52:15.508Z,99.40
2018-02-02T15:54:43.143Z,99.54
2018-02-02T15:57:10.753Z,99.37
2018-02-02T15:59:38.395Z,99.22
2018-02-02T16:02:06.045Z,99.16
2018-02-02T16:04:33.692Z,99.35
2018-02-02T16:07:01.336Z,99.37
2018-02-02T16:09:28.942Z,99.48
2018-02-02T16:11:56.543Z,99.39
2018-02-02T16:14:24.183Z,99.27
2018-02-02T16:16:52.626Z,99.25
2018-02-02T16:19:20.359Z,99.29
2018-02-02T16:21:47.997Z,99.27
2018-02-02T16:24:15.677Z,99.35
2018-02-02T16:26:43.298Z,99.23
2018-02-02T16:29:10.988Z,99.19
2018-02-02T16:31:38.634Z,99.19
2018-02-02T16:34:06.275Z,99.29
2018-02-02T16:36:33.914Z,99.26
2018-02-02T16:39:01.581Z,99.40
2018-02-02T16:41:29.174Z,99.66
2018-02-02T16:43:56.840Z,99.77
2018-02-02T16:46:24.432Z,99.73
2018-02-02T16:48:52.089Z,99.46
2018-02-02T16:51:19.671Z,99.48
2018-02-02T16:53:47.356Z,99.27
2018-02-02T16:56:14.978Z,99.31
2018-02-02T16:58:42.618Z,99.32
2018-02-02T17:01:10.303Z,99.38
2018-02-02T17:03:37.945Z,99.53
2018-02-02T17:06:05.580Z,99.71
2018-02-02T17:08:33.210Z,99.77
2018-02-02T17:11:00.826Z,99.91
2018-02-02T17:13:28.454Z,99.83
2018-02-02T17:15:56.060Z,99.57
2018-02-02T17:18:23.706Z,99.50
2018-02-02T17:20:51.322Z,99.50
2018-02-02T17:23:19.056Z,99.47
2018-02-02T17:25:46.678Z,99.48
2018-02-02T17:28:14.321Z,99.47
2018-02-02T17:30:41.938Z,99.25
2018-02-02T17:33:09.592Z,99.02
2018-02-02T17:35:37.246Z,98.96
2018-02-02T17:38:04.851Z,98.83
2018-02-02T17:40:32.489Z,98.72
2018-02-02T17:43:00.187Z,98.55
2018-02-02T17:45:27.858Z,98.62
2018-02-02T17:47:55.699Z,98.71
2018-02-02T17:50:23.562Z,98.91
2018-02-02T18:04:37.518Z,93.00
2018-02-02T18:07:59.862Z,94.69
2018-02-02T18:10:27.589Z,95.86
2018-02-02T18:12:55.290Z,96.75
2018-02-02T18:15:22.976Z,97.54
2018-02-02T18:17:50.746Z,98.06
2018-02-02T18:20:18.383Z,98.50
2018-02-02T18:22:45.996Z,98.80
2018-02-02T18:25:13.652Z,99.15
2018-02-02T18:27:41.277Z,99.41
2018-02-02T18:30:08.900Z,99.61
2018-02-02T18:32:36.517Z,99.85
2018-02-02T18:35:04.148Z,99.87
2018-02-02T18:37:31.746Z,99.92
2018-02-02T18:39:59.427Z,99.92
2018-02-02T18:42:27.027Z,99.99
2018-02-02T18:44:54.678Z,99.94
2018-02-02T18:47:22.339Z,99.90
2018-02-02T18:49:49.967Z,99.91
2018-02-02T18:52:17.635Z,100.00
2018-02-02T18:54:45.348Z,100.00
2018-02-02T18:57:12.947Z,100.00
2018-02-02T18:59:40.714Z,100.00
2018-02-02T19:02:08.326Z,100.00
2018-02-02T19:04:35.971Z,100.00
2018-02-02T19:07:03.589Z,100.00
2018-02-02T19:09:31.215Z,100.00
2018-02-02T19:11:58.859Z,100.00
2018-02-02T19:14:26.537Z,100.00
2018-02-02T19:16:54.165Z,100.00
2018-02-02T19:19:21.887Z,100.00
2018-02-02T19:21:49.519Z,100.00
2018-02-02T19:24:17.323Z,100.00
2018-02-02T19:26:44.943Z,100.00
2018-02-02T19:29:12.598Z,100.00
2018-02-02T19:31:40.218Z,100.00
2018-02-02T19:34:07.878Z,100.00
2018-02-02T19:36:35.574Z,100.00
2018-02-02T19:39:03.279Z,100.00
2018-02-02T19:41:30.902Z,100.00
2018-02-02T19:43:58.530Z,100.00
2018-02-02T19:46:26.142Z,100.00
2018-02-02T19:48:53.810Z,100.00
2018-02-02T19:51:21.471Z,100.00
2018-02-02T19:53:49.109Z,100.00
2018-02-02T19:56:16.761Z,100.00
2018-02-02T19:58:44.420Z,100.00
2018-02-02T20:01:12.048Z,100.00
2018-02-02T20:03:39.689Z,100.00
2018-02-02T20:06:07.299Z,100.00
2018-02-02T20:08:34.962Z,100.00
2018-02-02T20:11:02.592Z,100.00
2018-02-02T20:13:30.224Z,100.00
2018-02-02T20:15:57.839Z,99.45
2018-02-02T20:18:25.470Z,92.77
2018-02-02T20:20:53.053Z,97.31
2018-02-02T20:23:20.691Z,92.01
2018-02-02T20:25:48.315Z,89.15
2018-02-02T20:28:15.947Z,90.05
2018-02-02T20:30:43.586Z,91.73
2018-02-02T20:33:11.215Z,92.93
2018-02-02T20:35:38.835Z,93.90
2018-02-02T20:38:06.483Z,94.66
2018-02-02T20:40:34.115Z,95.40
2018-02-02T20:43:01.758Z,95.82
2018-02-02T20:45:29.373Z,95.88
2018-02-02T20:47:57.022Z,96.10
2018-02-02T20:50:24.622Z,96.50
2018-02-02T20:52:52.252Z,96.65
2018-02-02T20:55:19.856Z,97.04
2018-02-02T20:57:47.482Z,97.27
2018-02-02T21:00:15.126Z,98.25
2018-02-02T21:02:42.822Z,96.86
2018-02-02T21:05:10.456Z,96.88
2018-02-02T21:07:38.326Z,97.33
2018-02-02T21:10:05.916Z,97.80
2018-02-02T21:12:33.558Z,98.10
2018-02-02T21:15:01.186Z,97.67
2018-02-02T21:17:28.806Z,97.88
2018-02-02T21:19:56.414Z,97.96
2018-02-02T21:22:24.087Z,98.01
2018-02-02T21:24:51.678Z,98.15
2018-02-02T21:27:19.326Z,98.43
2018-02-02T21:29:46.944Z,98.56
2018-02-02T21:32:14.643Z,98.75
2018-02-02T21:34:42.235Z,98.99
2018-02-02T21:37:09.830Z,99.00
2018-02-02T21:39:37.566Z,98.81
2018-02-02T21:42:05.173Z,99.62
2018-02-02T21:44:32.927Z,98.57
2018-02-02T21:47:00.574Z,98.90
2018-02-02T21:49:28.210Z,98.53
2018-02-02T21:51:55.816Z,98.55
2018-02-02T21:54:23.502Z,98.68
2018-02-02T21:56:51.151Z,98.85
2018-02-02T21:59:18.845Z,98.99
2018-02-02T22:01:46.461Z,98.96
2018-02-02T22:04:14.935Z,100.00
2018-02-02T22:06:42.604Z,98.18
2018-02-02T22:09:11.282Z,97.69
2018-02-02T22:11:38.916Z,97.74
2018-02-02T22:14:06.589Z,97.73
2018-02-02T22:16:35.019Z,97.66
2018-02-02T22:19:02.699Z,97.71
2018-02-02T22:21:30.333Z,97.74
2018-02-02T22:23:58.007Z,97.78
2018-02-02T22:26:25.628Z,97.76
2018-02-02T22:28:53.859Z,97.84
2018-02-02T22:31:21.560Z,97.96
2018-02-02T22:33:49.400Z,98.00
2018-02-02T22:36:17.068Z,98.07
2018-02-02T22:38:44.716Z,98.24
2018-02-02T22:41:12.428Z,98.48
2018-02-02T22:43:40.023Z,98.53
2018-02-02T22:46:07.699Z,98.55
2018-02-02T22:48:35.324Z,98.47
2018-02-02T22:51:02.975Z,98.60
2018-02-02T22:53:30.674Z,98.74
2018-02-02T22:55:58.332Z,98.72
2018-02-02T22:58:26.173Z,98.73
2018-02-02T23:00:53.853Z,98.72
2018-02-02T23:03:21.457Z,98.74
2018-02-02T23:05:49.171Z,99.05
2018-02-02T23:08:16.783Z,98.39
2018-02-02T23:10:44.424Z,98.08
2018-02-02T23:13:12.023Z,98.16
2018-02-02T23:15:39.658Z,98.24
2018-02-02T23:18:07.257Z,98.87
2018-02-02T23:20:35.304Z,98.85
2018-02-02T23:23:02.967Z,99.63
2018-02-02T23:25:32.218Z,98.30
2018-02-02T23:27:59.863Z,97.44
2018-02-02T23:30:27.600Z,97.36
2018-02-02T23:32:55.193Z,97.63
2018-02-02T23:35:23.953Z,97.75
2018-02-02T23:37:51.560Z,97.61
2018-02-02T23:40:19.195Z,97.48
2018-02-02T23:42:46.807Z,97.46
2018-02-02T23:45:14.764Z,97.60
2018-02-02T23:47:42.368Z,97.67
2018-02-02T23:50:10.032Z,97.68
2018-02-02T23:52:37.669Z,97.69
2018-02-02T23:55:05.351Z,97.77
2018-02-02T23:57:32.979Z,97.71
